Time;durP1;ratioP1;P1;durP2;ratioP2;P2;SDS_P1;SDS_P2;PMS_P1;PMS_P2;Temp;Humidity;BMP_temperature;BMP_pressure;BME280_temperature;BME280_humidity;BME280_pressure;Samples;Min_cycle;Max_cycle;Signal;HPM_P1;HPM_P2
2023/01/02 00:01:02;;;;;;;8.20;2.57;;;14.30;99.90;;;;;;5034069;28;20472;-81
2023/01/02 00:03:49;;;;;;;7.73;2.17;;;14.20;99.90;;;;;;5032946;28;20840;-81
2023/01/02 00:06:17;;;;;;;6.00;2.33;;;14.20;99.90;;;;;;5044632;28;20533;-85
2023/01/02 00:08:45;;;;;;;7.00;4.10;;;14.10;99.90;;;;;;5047130;28;20478;-79
2023/01/02 00:11:13;;;;;;;5.73;2.43;;;14.10;99.90;;;;;;5044016;28;20468;-78
2023/01/02 00:13:40;;;;;;;10.00;2.73;;;14.20;99.90;;;;;;5047524;28;20484;-82
2023/01/02 00:16:09;;;;;;;5.27;2.40;;;14.20;99.90;;;;;;5047978;28;20755;-80
2023/01/02 00:18:38;;;;;;;6.10;2.57;;;14.20;99.90;;;;;;5042211;28;20519;-78
2023/01/02 00:21:06;;;;;;;9.33;2.50;;;14.20;99.90;;;;;;5045406;28;20450;-78
2023/01/02 00:23:33;;;;;;;7.47;2.60;;;14.10;99.90;;;;;;5044442;28;20457;-83
2023/01/02 00:26:00;;;;;;;7.20;2.53;;;14.20;99.90;;;;;;5047622;28;20455;-78
2023/01/02 00:28:27;;;;;;;5.30;2.30;;;14.30;99.90;;;;;;5046557;28;20489;-80
2023/01/02 00:30:54;;;;;;;11.70;2.43;;;14.40;99.90;;;;;;5050873;28;20473;-79
2023/01/02 00:33:22;;;;;;;5.93;2.30;;;14.50;99.90;;;;;;5049772;28;20552;-81
2023/01/02 00:35:49;;;;;;;8.70;2.30;;;14.50;99.90;;;;;;5047466;28;20496;-81
2023/01/02 00:38:18;;;;;;;4.70;1.80;;;14.50;99.90;;;;;;5046682;28;20830;-82
2023/01/02 00:40:44;;;;;;;7.73;3.27;;;14.60;99.90;;;;;;5047051;28;20468;-82
2023/01/02 00:43:15;;;;;;;6.37;2.53;;;14.60;99.90;;;;;;5051235;28;20502;-81
2023/01/02 00:45:43;;;;;;;5.80;2.30;;;14.60;99.90;;;;;;5053914;28;20490;-83
2023/01/02 00:48:10;;;;;;;5.80;2.20;;;14.60;99.90;;;;;;5053059;28;20509;-82
2023/01/02 00:50:38;;;;;;;7.80;2.27;;;14.70;99.90;;;;;;5049175;28;20524;-83
2023/01/02 00:53:04;;;;;;;5.10;2.90;;;14.60;99.90;;;;;;5045181;28;20472;-82
2023/01/02 00:55:31;;;;;;;4.43;1.90;;;14.70;99.90;;;;;;5050005;28;20487;-81
2023/01/02 00:57:58;;;;;;;7.43;2.70;;;14.60;99.90;;;;;;5050546;28;20500;-83
2023/01/02 01:00:25;;;;;;;7.30;2.50;;;14.60;99.90;;;;;;5050085;28;20473;-82
2023/01/02 01:02:55;;;;;;;3.87;1.90;;;14.60;99.90;;;;;;5049086;28;20469;-81
2023/01/02 01:05:22;;;;;;;7.70;2.80;;;14.60;99.90;;;;;;5048615;28;20448;-82
2023/01/02 01:07:50;;;;;;;3.00;1.90;;;14.60;99.90;;;;;;5048565;28;20480;-80
2023/01/02 01:10:17;;;;;;;7.30;2.07;;;14.50;99.90;;;;;;5047318;28;20487;-83
2023/01/02 01:12:44;;;;;;;8.30;3.13;;;14.50;99.90;;;;;;5047968;28;20531;-82
2023/01/02 01:15:11;;;;;;;9.07;2.70;;;14.40;99.90;;;;;;5045754;28;20546;-83
2023/01/02 01:17:38;;;;;;;4.47;2.30;;;14.30;99.90;;;;;;5046242;28;20447;-82
2023/01/02 01:20:06;;;;;;;14.73;2.83;;;14.10;99.90;;;;;;5044911;28;20473;-83
2023/01/02 01:22:33;;;;;;;10.03;2.63;;;13.90;99.90;;;;;;5039995;28;20471;-83
2023/01/02 01:25:01;;;;;;;13.47;2.50;;;13.70;99.90;;;;;;5038045;28;20449;-83
2023/01/02 01:27:28;;;;;;;10.00;3.00;;;13.50;99.90;;;;;;5037671;28;20466;-82
2023/01/02 01:29:55;;;;;;;8.13;2.47;;;13.30;99.90;;;;;;5036117;28;20488;-82
2023/01/02 01:32:22;;;;;;;5.60;2.87;;;13.20;99.90;;;;;;5036068;28;20553;-82
2023/01/02 01:34:48;;;;;;;6.87;2.90;;;13.10;99.90;;;;;;5035974;28;20547;-83
2023/01/02 01:37:15;;;;;;;6.70;2.83;;;13.10;99.90;;;;;;5036230;28;20883;-82
2023/01/02 01:39:42;;;;;;;6.60;2.77;;;13.00;99.90;;;;;;5034636;28;20461;-86
2023/01/02 01:42:13;;;;;;;6.63;2.60;;;12.90;99.90;;;;;;5038891;28;20489;-82
2023/01/02 01:44:45;;;;;;;4.10;2.60;;;12.90;99.90;;;;;;5043912;28;20457;-81
2023/01/02 01:47:22;;;;;;;8.63;3.07;;;12.80;99.90;;;;;;5045297;28;20439;-83
2023/01/02 01:49:51;;;;;;;5.20;3.10;;;12.90;99.90;;;;;;5048766;28;20484;-81
2023/01/02 01:52:21;;;;;;;8.00;3.10;;;12.80;99.90;;;;;;5050714;28;20528;-82
2023/01/02 01:54:56;;;;;;;8.20;3.13;;;12.80;99.90;;;;;;5049980;28;20472;-82
2023/01/02 01:57:30;;;;;;;7.13;2.90;;;12.80;99.90;;;;;;5050070;28;20434;-81
2023/01/02 01:59:58;;;;;;;9.63;4.00;;;12.70;99.90;;;;;;5049774;28;20480;-81
2023/01/02 02:02:27;;;;;;;7.73;3.20;;;12.70;99.90;;;;;;5052210;28;20542;-82
2023/01/02 02:04:55;;;;;;;8.07;3.40;;;12.70;99.90;;;;;;5053907;28;20457;-82
2023/01/02 02:07:22;;;;;;;5.63;3.57;;;12.70;99.90;;;;;;5053134;28;20462;-81
2023/01/02 02:09:54;;;;;;;8.57;3.60;;;12.70;99.90;;;;;;5044342;28;20497;-81
2023/01/02 02:12:22;;;;;;;11.37;2.90;;;12.70;99.90;;;;;;5042647;28;20476;-80
2023/01/02 02:14:50;;;;;;;5.97;2.40;;;12.60;99.90;;;;;;5053081;28;20512;-81
2023/01/02 02:17:24;;;;;;;6.70;2.87;;;12.60;99.90;;;;;;5051966;28;20479;-80
2023/01/02 02:20:13;;;;;;;5.43;2.50;;;12.60;99.90;;;;;;5050389;28;20481;-80
2023/01/02 02:23:19;;;;;;;8.37;3.20;;;12.60;99.90;;;;;;5043861;28;20557;-80
2023/01/02 02:26:08;;;;;;;7.10;2.63;;;12.60;99.90;;;;;;5011643;28;20453;-79
2023/01/02 02:29:16;;;;;;;10.27;2.90;;;12.60;99.90;;;;;;5039757;28;20837;-81
2023/01/02 02:31:50;;;;;;;5.27;2.73;;;12.70;99.90;;;;;;5048980;28;20474;-81
2023/01/02 02:34:24;;;;;;;5.97;3.20;;;12.70;99.90;;;;;;5047511;28;20980;-80
2023/01/02 02:36:58;;;;;;;6.77;2.87;;;12.70;99.90;;;;;;5045269;28;20448;-81
2023/01/02 02:39:39;;;;;;;5.80;2.60;;;12.70;99.90;;;;;;5040404;28;20464;-79
2023/01/02 02:42:12;;;;;;;8.87;2.93;;;12.70;99.90;;;;;;5035735;28;20480;-81
2023/01/02 02:44:48;;;;;;;6.23;2.87;;;12.60;99.90;;;;;;5049218;28;20519;-82
2023/01/02 02:47:22;;;;;;;6.67;3.03;;;12.60;99.90;;;;;;5047319;28;20518;-81
2023/01/02 02:49:55;;;;;;;8.63;2.70;;;12.60;99.90;;;;;;5043102;28;20480;-82
2023/01/02 02:52:29;;;;;;;10.30;5.50;;;12.60;99.90;;;;;;5047788;28;20619;-81
2023/01/02 02:55:00;;;;;;;7.17;3.07;;;12.60;99.90;;;;;;5031819;28;20530;-81
2023/01/02 02:57:27;;;;;;;5.07;2.77;;;12.60;99.90;;;;;;5038889;28;20442;-82
2023/01/02 02:59:54;;;;;;;5.30;2.70;;;12.60;99.90;;;;;;5050009;28;20569;-82
2023/01/02 03:02:22;;;;;;;9.30;3.00;;;12.60;99.90;;;;;;5050010;28;20531;-82
2023/01/02 03:04:54;;;;;;;7.60;2.97;;;12.60;99.90;;;;;;5050063;28;20440;-82
2023/01/02 03:07:26;;;;;;;8.77;2.67;;;12.50;99.90;;;;;;5052949;28;20459;-82
2023/01/02 03:10:08;;;;;;;6.90;2.83;;;12.50;99.90;;;;;;5046720;28;20478;-82
2023/01/02 03:12:43;;;;;;;5.30;2.70;;;12.50;99.90;;;;;;5050653;28;20536;-81
2023/01/02 03:15:15;;;;;;;5.10;2.50;;;12.50;99.90;;;;;;5050574;28;20458;-82
2023/01/02 03:17:54;;;;;;;7.13;3.20;;;12.50;99.90;;;;;;5050132;28;20463;-81
2023/01/02 03:20:27;;;;;;;4.97;3.30;;;12.50;99.90;;;;;;5050340;28;20501;-83
2023/01/02 03:22:58;;;;;;;5.97;3.20;;;12.50;99.90;;;;;;5051582;28;20476;-82
2023/01/02 03:25:26;;;;;;;7.30;3.40;;;12.50;99.90;;;;;;5050824;28;20451;-82
2023/01/02 03:27:56;;;;;;;8.87;2.83;;;12.40;99.90;;;;;;5047401;28;20521;-81
2023/01/02 03:30:23;;;;;;;5.20;3.20;;;12.40;99.90;;;;;;5046617;28;20941;-80
2023/01/02 03:32:55;;;;;;;11.13;3.37;;;12.40;99.90;;;;;;5048931;28;20466;-79
2023/01/02 03:35:26;;;;;;;9.37;4.00;;;12.40;99.90;;;;;;5052109;28;20519;-81
2023/01/02 03:37:56;;;;;;;9.67;3.73;;;12.40;99.90;;;;;;5049604;28;20453;-81
2023/01/02 03:40:28;;;;;;;7.57;3.00;;;12.40;99.90;;;;;;5051891;28;20445;-83
2023/01/02 03:42:59;;;;;;;4.67;2.80;;;12.30;99.90;;;;;;5044589;28;20493;-82
2023/01/02 03:45:30;;;;;;;9.70;4.47;;;12.40;99.90;;;;;;5048645;28;20475;-83
2023/01/02 03:48:06;;;;;;;8.57;3.13;;;12.30;99.90;;;;;;5045767;28;20456;-83
2023/01/02 03:50:40;;;;;;;6.67;3.27;;;12.30;99.90;;;;;;5051759;28;20493;-84
2023/01/02 03:53:08;;;;;;;7.13;3.17;;;12.30;99.90;;;;;;5053825;28;20487;-84
2023/01/02 03:55:40;;;;;;;6.53;3.33;;;12.30;99.90;;;;;;5050950;28;20477;-80
2023/01/02 03:58:12;;;;;;;7.17;3.60;;;12.30;99.90;;;;;;5055033;28;21015;-85
2023/01/02 04:00:51;;;;;;;7.20;3.47;;;12.20;99.90;;;;;;5046400;28;20477;-86
2023/01/02 04:03:26;;;;;;;12.40;3.60;;;12.20;99.90;;;;;;5038341;28;20538;-85
2023/01/02 04:06:00;;;;;;;11.80;3.67;;;12.20;99.90;;;;;;5036904;28;20544;-86
2023/01/02 04:08:30;;;;;;;9.50;3.80;;;12.20;99.90;;;;;;5038547;28;20455;-84
2023/01/02 04:11:00;;;;;;;12.73;3.50;;;12.20;99.90;;;;;;5037017;28;20440;-85
2023/01/02 04:13:32;;;;;;;7.00;3.57;;;12.20;99.90;;;;;;5036179;28;20456;-86
2023/01/02 04:16:00;;;;;;;7.93;3.47;;;12.20;99.90;;;;;;5036498;28;20842;-85
2023/01/02 04:18:33;;;;;;;9.37;3.20;;;12.10;99.90;;;;;;5036431;28;20462;-85
2023/01/02 04:21:06;;;;;;;5.30;3.13;;;12.20;99.90;;;;;;5041620;28;20468;-81
2023/01/02 04:23:38;;;;;;;7.07;3.17;;;12.20;99.90;;;;;;5041672;28;20434;-82
2023/01/02 04:26:10;;;;;;;7.60;3.53;;;12.20;99.90;;;;;;5044062;28;20452;-82
2023/01/02 04:28:38;;;;;;;8.80;4.13;;;12.20;99.90;;;;;;5048790;28;20768;-85
2023/01/02 04:31:09;;;;;;;6.20;3.30;;;12.20;99.90;;;;;;5044713;28;20534;-83
2023/01/02 04:33:43;;;;;;;10.77;3.30;;;12.10;99.90;;;;;;5039439;28;20544;-81
2023/01/02 04:36:11;;;;;;;7.00;3.80;;;12.10;99.90;;;;;;5048565;28;20511;-82
2023/01/02 04:38:38;;;;;;;8.10;3.40;;;12.10;99.90;;;;;;5049112;28;20450;-83
2023/01/02 04:41:07;;;;;;;7.93;3.33;;;12.10;99.90;;;;;;5049203;28;20550;-82
2023/01/02 04:43:34;;;;;;;5.00;3.07;;;12.10;99.90;;;;;;5050046;28;20523;-82
2023/01/02 04:46:00;;;;;;;10.20;4.20;;;12.10;99.90;;;;;;5045313;28;20510;-84
2023/01/02 04:48:27;;;;;;;7.80;3.50;;;12.10;99.90;;;;;;5040596;28;20452;-83
2023/01/02 04:50:55;;;;;;;9.27;4.27;;;12.10;99.90;;;;;;5039492;28;20544;-78
2023/01/02 04:53:22;;;;;;;7.83;3.03;;;12.10;99.90;;;;;;5038200;28;20474;-82
2023/01/02 04:55:54;;;;;;;8.07;3.30;;;12.10;99.90;;;;;;5037800;28;20449;-83
2023/01/02 04:58:21;;;;;;;7.83;3.10;;;12.10;99.90;;;;;;5037740;28;20466;-82
2023/01/02 05:00:48;;;;;;;5.67;2.90;;;12.10;99.90;;;;;;5038656;28;20445;-82
2023/01/02 05:03:14;;;;;;;7.97;3.57;;;12.10;99.90;;;;;;5037376;28;20475;-82
2023/01/02 05:05:41;;;;;;;7.00;2.77;;;12.10;99.90;;;;;;5038975;28;20530;-78
2023/01/02 05:08:09;;;;;;;5.67;3.33;;;12.10;99.90;;;;;;5036338;28;20456;-82
2023/01/02 05:10:36;;;;;;;6.03;3.13;;;12.10;99.90;;;;;;5037941;28;20511;-80
2023/01/02 05:13:03;;;;;;;6.17;3.03;;;12.10;99.90;;;;;;5036988;28;20469;-84
2023/01/02 05:15:30;;;;;;;5.70;3.20;;;12.10;99.90;;;;;;5040671;28;20524;-83
2023/01/02 05:17:57;;;;;;;6.80;3.37;;;12.10;99.90;;;;;;5043052;28;20464;-83
2023/01/02 05:20:24;;;;;;;5.23;2.67;;;12.20;99.90;;;;;;5048495;28;20449;-83
2023/01/02 05:25:36;;;;;;;10.00;3.20;;;12.20;99.90;;;;;;5048710;28;20459;-84
2023/01/02 05:28:04;;;;;;;5.63;3.00;;;12.30;99.90;;;;;;5041878;28;20457;-85
2023/01/02 05:30:31;;;;;;;10.00;2.73;;;12.30;99.90;;;;;;5045041;28;20496;-83
2023/01/02 05:32:57;;;;;;;4.20;2.50;;;12.30;99.90;;;;;;5045711;28;20565;-82
2023/01/02 05:35:24;;;;;;;8.00;3.17;;;12.30;99.90;;;;;;5046583;28;20457;-83
2023/01/02 05:37:51;;;;;;;5.47;2.40;;;12.30;99.90;;;;;;5047589;28;20456;-83
2023/01/02 05:40:18;;;;;;;5.33;2.20;;;12.30;99.90;;;;;;5051976;28;20847;-81
2023/01/02 05:42:46;;;;;;;6.47;2.60;;;12.30;99.90;;;;;;5062885;22;20490;-79
2023/01/02 05:45:13;;;;;;;6.20;2.07;;;12.40;99.90;;;;;;5037661;28;20462;-78
2023/01/02 05:47:40;;;;;;;7.30;1.90;;;12.40;99.90;;;;;;5040819;28;20456;-78
2023/01/02 05:50:08;;;;;;;7.80;3.30;;;12.40;99.90;;;;;;5038907;28;20495;-80
2023/01/02 05:52:34;;;;;;;10.10;2.87;;;12.40;99.90;;;;;;5020418;28;20502;-80
2023/01/02 05:55:01;;;;;;;8.70;2.43;;;12.40;99.90;;;;;;5022614;28;20457;-79
2023/01/02 05:57:28;;;;;;;6.50;2.60;;;12.40;99.90;;;;;;5036267;28;20521;-79
2023/01/02 05:59:56;;;;;;;6.57;2.60;;;12.40;99.90;;;;;;5032656;28;20449;-80
2023/01/02 06:02:23;;;;;;;4.20;2.00;;;12.40;99.90;;;;;;5040669;28;20463;-82
2023/01/02 06:04:50;;;;;;;6.63;2.60;;;12.50;99.90;;;;;;5040447;28;20536;-79
2023/01/02 06:07:17;;;;;;;6.40;2.30;;;12.50;99.90;;;;;;5041253;28;20536;-79
2023/01/02 06:09:43;;;;;;;5.80;2.47;;;12.50;99.90;;;;;;5039580;28;20491;-80
2023/01/02 06:12:10;;;;;;;5.43;2.80;;;12.50;99.90;;;;;;5041080;28;20556;-78
2023/01/02 06:14:37;;;;;;;5.90;2.90;;;12.60;99.90;;;;;;5032566;28;20555;-79
2023/01/02 06:17:05;;;;;;;8.10;2.90;;;12.50;99.90;;;;;;5040302;28;20449;-80
2023/01/02 06:19:32;;;;;;;6.10;2.90;;;12.50;99.90;;;;;;5038788;28;20542;-79
2023/01/02 06:21:59;;;;;;;4.43;2.50;;;12.50;99.90;;;;;;5040355;28;20456;-79
2023/01/02 06:24:25;;;;;;;7.23;2.60;;;12.50;99.90;;;;;;5040819;28;20450;-79
2023/01/02 06:26:54;;;;;;;12.20;2.77;;;12.50;99.90;;;;;;5040235;28;20525;-79
2023/01/02 06:29:21;;;;;;;13.87;2.57;;;12.50;99.90;;;;;;5041023;28;20966;-78
2023/01/02 06:31:48;;;;;;;5.73;3.17;;;12.40;99.90;;;;;;5040576;28;20453;-79
2023/01/02 06:34:16;;;;;;;5.70;1.80;;;12.40;99.90;;;;;;5041271;28;20454;-81
2023/01/02 06:36:43;;;;;;;5.00;2.37;;;12.40;99.90;;;;;;5041052;28;20550;-80
2023/01/02 06:39:10;;;;;;;4.93;2.30;;;12.50;99.90;;;;;;5040874;28;20983;-80
2023/01/02 06:41:37;;;;;;;5.30;2.03;;;12.50;99.90;;;;;;5040458;28;20451;-83
2023/01/02 06:44:03;;;;;;;6.23;2.20;;;12.50;99.90;;;;;;5040953;28;20565;-79
2023/01/02 06:46:30;;;;;;;4.90;2.50;;;12.50;99.90;;;;;;5040715;28;20467;-81
2023/01/02 06:48:57;;;;;;;6.43;2.00;;;12.60;99.90;;;;;;5039174;28;20490;-79
2023/01/02 06:51:25;;;;;;;6.17;1.90;;;12.60;99.90;;;;;;5045481;28;20488;-80
2023/01/02 06:53:52;;;;;;;2.87;2.10;;;12.70;99.90;;;;;;5045968;28;20480;-80
2023/01/02 06:56:20;;;;;;;11.40;3.20;;;12.70;99.90;;;;;;5046420;28;20472;-80
2023/01/02 06:58:47;;;;;;;5.10;2.40;;;12.70;99.90;;;;;;5044197;28;20528;-79
2023/01/02 07:01:15;;;;;;;3.80;2.00;;;12.60;99.90;;;;;;5045049;28;20456;-81
2023/01/02 07:03:42;;;;;;;4.70;2.10;;;12.60;99.90;;;;;;5043489;28;20481;-82
2023/01/02 07:06:11;;;;;;;2.97;1.60;;;12.50;99.90;;;;;;5042270;28;20454;-79
2023/01/02 07:08:40;;;;;;;9.33;2.63;;;12.40;99.90;;;;;;5044818;28;20951;-81
2023/01/02 07:11:09;;;;;;;4.00;1.87;;;12.40;99.90;;;;;;5045683;28;20503;-80
2023/01/02 07:13:36;;;;;;;6.53;2.07;;;12.40;99.90;;;;;;5045088;28;20472;-80
2023/01/02 07:16:04;;;;;;;3.13;2.30;;;12.40;99.90;;;;;;5046036;28;20448;-79
2023/01/02 07:18:31;;;;;;;3.90;1.90;;;12.40;99.90;;;;;;5044699;28;20450;-81
2023/01/02 07:20:58;;;;;;;3.27;1.97;;;12.30;99.90;;;;;;5046655;28;20441;-81
2023/01/02 07:23:25;;;;;;;5.73;2.13;;;12.30;99.90;;;;;;5043870;28;20497;-81
2023/01/02 07:25:55;;;;;;;3.60;2.10;;;12.30;99.90;;;;;;5038952;28;20457;-81
2023/01/02 07:28:22;;;;;;;6.97;2.00;;;12.30;99.90;;;;;;5033858;28;20544;-82
2023/01/02 07:30:49;;;;;;;4.03;2.10;;;12.40;99.90;;;;;;5033547;28;20573;-82
2023/01/02 07:33:16;;;;;;;4.50;2.77;;;12.40;99.90;;;;;;5029356;28;20500;-80
2023/01/02 07:35:44;;;;;;;3.50;2.13;;;12.40;99.90;;;;;;5042241;28;20465;-80
2023/01/02 07:38:11;;;;;;;4.07;1.77;;;12.40;99.90;;;;;;5032700;28;20557;-81
2023/01/02 07:40:38;;;;;;;4.10;2.47;;;12.40;99.90;;;;;;5030336;28;20538;-81
2023/01/02 07:43:06;;;;;;;9.27;3.27;;;12.40;99.90;;;;;;5024039;28;20557;-79
2023/01/02 07:45:33;;;;;;;3.50;2.13;;;12.40;99.90;;;;;;5024879;28;20466;-80
2023/01/02 07:48:00;;;;;;;3.77;1.83;;;12.40;99.90;;;;;;5019640;28;20478;-81
2023/01/02 07:50:27;;;;;;;4.03;1.77;;;12.40;99.90;;;;;;5034909;28;20484;-83
2023/01/02 07:52:54;;;;;;;4.27;1.53;;;12.40;99.90;;;;;;5043761;28;20511;-80
2023/01/02 07:55:21;;;;;;;3.40;2.57;;;12.40;99.90;;;;;;5031528;28;20530;-78
2023/01/02 07:57:48;;;;;;;4.10;2.20;;;12.40;99.90;;;;;;5028649;28;20463;-79
2023/01/02 08:00:18;;;;;;;4.20;2.30;;;12.40;99.90;;;;;;5019355;28;20453;-80
2023/01/02 08:02:45;;;;;;;3.60;1.73;;;12.40;99.90;;;;;;5026096;28;21021;-79
2023/01/02 08:05:12;;;;;;;4.80;2.13;;;12.40;99.90;;;;;;5023645;28;20460;-80
2023/01/02 08:07:39;;;;;;;2.93;2.20;;;12.30;99.90;;;;;;5031026;28;20485;-79
2023/01/02 08:10:06;;;;;;;5.30;2.50;;;12.40;99.90;;;;;;5023871;28;20491;-77
2023/01/02 08:12:33;;;;;;;4.30;1.73;;;12.40;99.90;;;;;;5024469;28;20568;-79
2023/01/02 08:15:00;;;;;;;6.80;2.40;;;12.30;99.90;;;;;;5024522;28;20466;-79
2023/01/02 08:17:29;;;;;;;6.30;1.80;;;12.30;99.90;;;;;;5018600;28;20845;-80
2023/01/02 08:19:56;;;;;;;6.47;2.23;;;12.20;99.90;;;;;;5026255;28;20460;-79
2023/01/02 08:22:23;;;;;;;2.63;1.83;;;12.20;99.90;;;;;;5033031;28;20492;-81
2023/01/02 08:24:50;;;;;;;5.37;2.27;;;12.20;99.90;;;;;;5036172;28;20452;-79
2023/01/02 08:27:16;;;;;;;4.70;1.93;;;12.20;99.90;;;;;;5031454;28;20491;-79
2023/01/02 08:29:43;;;;;;;6.30;1.93;;;12.10;99.90;;;;;;5031319;28;20484;-80
2023/01/02 08:32:10;;;;;;;4.53;1.90;;;12.20;99.90;;;;;;5028692;28;20479;-79
2023/01/02 08:34:38;;;;;;;4.40;1.80;;;12.20;99.90;;;;;;5039686;28;20453;-79
2023/01/02 08:37:05;;;;;;;4.70;2.33;;;12.20;99.90;;;;;;5025600;28;20453;-80
2023/01/02 08:39:32;;;;;;;5.97;2.30;;;12.10;99.90;;;;;;5027080;28;20454;-78
2023/01/02 08:41:59;;;;;;;6.47;2.03;;;12.10;99.90;;;;;;5018397;28;20475;-80
2023/01/02 08:44:25;;;;;;;4.27;2.33;;;12.10;99.90;;;;;;5023245;28;20575;-84
2023/01/02 08:46:52;;;;;;;2.70;2.00;;;12.10;99.90;;;;;;5038909;28;21038;-79
2023/01/02 08:49:19;;;;;;;2.80;2.00;;;12.10;99.90;;;;;;5043177;28;20514;-79
2023/01/02 08:51:47;;;;;;;39.67;18.37;;;12.10;99.90;;;;;;5037692;28;20511;-79
2023/01/02 08:54:14;;;;;;;8.93;3.37;;;12.10;99.90;;;;;;5033421;28;20482;-80
2023/01/02 08:56:41;;;;;;;4.73;2.27;;;12.10;99.90;;;;;;5041268;28;20468;-79
2023/01/02 08:59:10;;;;;;;7.03;2.60;;;12.00;99.90;;;;;;5028166;28;20481;-80
2023/01/02 09:01:38;;;;;;;5.37;2.60;;;12.00;99.90;;;;;;5031739;28;20452;-79
2023/01/02 09:04:05;;;;;;;7.17;3.07;;;12.10;99.90;;;;;;5032904;28;20478;-80
2023/01/02 09:06:34;;;;;;;3.83;2.37;;;12.00;99.90;;;;;;5036643;28;21153;-80
2023/01/02 09:09:03;;;;;;;3.23;2.43;;;11.90;99.90;;;;;;5038670;28;20496;-81
2023/01/02 09:11:32;;;;;;;2.87;2.10;;;11.80;99.90;;;;;;5027683;28;20554;-78
2023/01/02 09:14:00;;;;;;;4.73;1.70;;;11.70;99.90;;;;;;5042623;28;20476;-81
2023/01/02 09:16:27;;;;;;;2.30;1.10;;;11.60;99.90;;;;;;5028745;28;20484;-81
2023/01/02 09:18:56;;;;;;;1.80;1.07;;;11.50;99.90;;;;;;5028879;28;20465;-78
2023/01/02 09:21:23;;;;;;;2.80;1.40;;;11.40;99.90;;;;;;5039191;28;20883;-81
2023/01/02 09:23:49;;;;;;;1.80;1.03;;;11.40;99.90;;;;;;5047850;28;20468;-81
2023/01/02 09:26:18;;;;;;;2.50;1.37;;;11.40;99.90;;;;;;5047722;28;20530;-79
2023/01/02 09:28:45;;;;;;;2.40;1.47;;;11.40;99.90;;;;;;5044159;28;20511;-80
2023/01/02 09:31:14;;;;;;;2.60;1.60;;;11.30;99.90;;;;;;5045058;28;20494;-83
2023/01/02 09:33:42;;;;;;;2.43;1.40;;;11.40;99.90;;;;;;5040010;28;20477;-81
2023/01/02 09:36:11;;;;;;;3.37;1.70;;;11.40;99.90;;;;;;5025505;28;20449;-79
2023/01/02 09:38:38;;;;;;;3.37;1.53;;;11.40;99.90;;;;;;5024318;28;20460;-82
2023/01/02 09:41:09;;;;;;;3.03;1.97;;;11.40;99.90;;;;;;5024099;28;20451;-79
2023/01/02 09:43:41;;;;;;;3.30;1.97;;;11.50;99.90;;;;;;5025857;28;20487;-81
2023/01/02 09:46:17;;;;;;;3.40;2.20;;;11.40;99.90;;;;;;5024896;28;20490;-84
2023/01/02 09:48:44;;;;;;;5.10;2.57;;;11.40;99.90;;;;;;5041281;28;20487;-81
2023/01/02 09:51:11;;;;;;;2.90;2.60;;;11.40;99.90;;;;;;5044473;28;20575;-81
2023/01/02 09:53:38;;;;;;;3.83;2.00;;;11.40;99.90;;;;;;5045210;28;20578;-82
2023/01/02 09:56:13;;;;;;;2.60;2.10;;;11.40;99.90;;;;;;5050316;28;20540;-79
2023/01/02 09:58:50;;;;;;;2.50;2.00;;;11.40;99.90;;;;;;5046657;28;20515;-80
2023/01/02 10:01:24;;;;;;;2.73;1.77;;;11.40;99.90;;;;;;5034831;28;20429;-78
2023/01/02 10:04:00;;;;;;;3.57;1.90;;;11.40;99.90;;;;;;5032582;28;20476;-82
2023/01/02 10:06:31;;;;;;;4.10;2.50;;;11.40;99.90;;;;;;5049482;28;20461;-80
2023/01/02 10:09:07;;;;;;;3.60;1.90;;;11.30;99.90;;;;;;5043526;28;20522;-81
2023/01/02 10:11:45;;;;;;;3.20;2.50;;;11.30;99.90;;;;;;5025816;28;20584;-80
2023/01/02 10:14:21;;;;;;;3.10;2.50;;;11.20;99.90;;;;;;5038246;28;20456;-80
2023/01/02 10:16:52;;;;;;;3.53;2.27;;;11.20;99.90;;;;;;5041929;28;20938;-79
2023/01/02 10:19:27;;;;;;;5.93;2.77;;;11.20;99.90;;;;;;5042817;28;20455;-83
2023/01/02 10:21:58;;;;;;;4.50;2.67;;;11.10;99.90;;;;;;5030471;28;20540;-79
2023/01/02 10:24:42;;;;;;;4.20;2.30;;;11.10;99.90;;;;;;5029156;28;20928;-81
2023/01/02 10:27:15;;;;;;;3.07;2.00;;;11.10;99.90;;;;;;5026711;28;20469;-80
2023/01/02 10:29:50;;;;;;;3.83;1.97;;;11.10;99.90;;;;;;5033448;28;20441;-80
2023/01/02 10:32:19;;;;;;;3.70;2.07;;;11.20;99.90;;;;;;5043852;28;20523;-83
2023/01/02 10:34:55;;;;;;;2.90;2.07;;;11.10;99.90;;;;;;5047841;28;20456;-84
2023/01/02 10:37:22;;;;;;;3.13;2.20;;;11.10;99.90;;;;;;5038770;28;20444;-84
2023/01/02 10:39:50;;;;;;;2.90;1.73;;;11.20;99.90;;;;;;5038601;28;20484;-82
2023/01/02 10:42:22;;;;;;;2.27;1.77;;;11.10;99.90;;;;;;5026956;28;21036;-82
2023/01/02 10:44:51;;;;;;;2.67;2.27;;;11.00;99.90;;;;;;5041488;28;20888;-83
2023/01/02 10:47:22;;;;;;;4.40;2.20;;;11.00;99.90;;;;;;5039629;28;20824;-84
2023/01/02 10:49:51;;;;;;;2.80;2.37;;;11.00;99.90;;;;;;5019162;28;20484;-81
2023/01/02 10:52:23;;;;;;;4.93;2.83;;;10.90;99.90;;;;;;5026414;28;20477;-79
2023/01/02 10:54:52;;;;;;;2.73;2.20;;;10.90;99.90;;;;;;5018206;28;20465;-82
2023/01/02 10:57:24;;;;;;;3.70;2.80;;;10.90;99.90;;;;;;5027304;28;20546;-79
2023/01/02 10:59:59;;;;;;;3.40;2.90;;;10.90;99.90;;;;;;5021514;28;20524;-82
2023/01/02 11:02:29;;;;;;;4.90;2.90;;;11.00;99.90;;;;;;5030067;28;20572;-79
2023/01/02 11:05:01;;;;;;;3.90;3.20;;;11.10;99.90;;;;;;5029769;28;20464;-80
2023/01/02 11:07:34;;;;;;;4.37;2.63;;;11.20;99.90;;;;;;5025630;28;20454;-80
2023/01/02 11:10:01;;;;;;;3.70;3.20;;;11.10;99.90;;;;;;5023247;28;20440;-83
2023/01/02 11:12:28;;;;;;;4.90;3.90;;;11.20;99.90;;;;;;5026325;28;20516;-80
2023/01/02 11:15:13;;;;;;;4.50;3.80;;;11.20;99.90;;;;;;5020758;28;20450;-80
2023/01/02 11:17:43;;;;;;;6.00;3.97;;;11.20;99.90;;;;;;5020212;28;20450;-84
2023/01/02 11:20:24;;;;;;;7.83;5.50;;;11.30;99.90;;;;;;5026734;28;20469;-82
2023/01/02 11:22:52;;;;;;;6.17;4.80;;;11.30;99.90;;;;;;5045236;28;20491;-81
2023/01/02 11:25:22;;;;;;;6.80;4.93;;;11.30;99.90;;;;;;5044225;28;20562;-82
2023/01/02 11:27:50;;;;;;;6.90;5.70;;;11.30;99.90;;;;;;5041204;28;21004;-81
2023/01/02 11:30:42;;;;;;;7.23;6.30;;;11.30;99.90;;;;;;5036643;28;20482;-80
2023/01/02 11:33:21;;;;;;;8.00;5.80;;;11.30;99.90;;;;;;5034797;28;20496;-81
2023/01/02 11:35:50;;;;;;;7.60;6.70;;;11.30;99.90;;;;;;5042123;28;20476;-82
2023/01/02 11:38:19;;;;;;;7.40;6.30;;;11.40;99.90;;;;;;5049068;28;20456;-79
2023/01/02 11:41:04;;;;;;;12.63;6.73;;;11.50;99.90;;;;;;5044350;28;20464;-78
2023/01/02 11:43:48;;;;;;;11.60;7.40;;;11.50;99.90;;;;;;5043625;28;20564;-80
2023/01/02 11:46:33;;;;;;;8.10;6.60;;;11.60;99.90;;;;;;5059491;23;20560;-81
2023/01/02 11:49:04;;;;;;;8.83;7.60;;;11.60;99.90;;;;;;5036948;28;20858;-82
2023/01/02 11:51:34;;;;;;;7.70;6.70;;;11.60;99.90;;;;;;5031621;28;20476;-82
2023/01/02 11:54:04;;;;;;;8.07;6.90;;;11.50;99.90;;;;;;5033534;28;20957;-81
2023/01/02 11:56:35;;;;;;;8.23;7.33;;;11.50;99.90;;;;;;5027342;28;21106;-81
2023/01/02 11:59:05;;;;;;;10.47;8.20;;;11.60;99.90;;;;;;5017865;28;20517;-83
2023/01/02 12:01:46;;;;;;;7.87;6.83;;;11.50;99.90;;;;;;5017842;28;20449;-82
2023/01/02 12:04:13;;;;;;;10.07;8.43;;;11.60;99.90;;;;;;5019691;28;20551;-82
2023/01/02 12:07:06;;;;;;;9.97;6.83;;;11.40;99.90;;;;;;5013628;28;20508;-82
2023/01/02 12:09:42;;;;;;;11.17;8.30;;;11.60;99.90;;;;;;5016412;28;20969;-82
2023/01/02 12:12:26;;;;;;;11.00;8.60;;;11.60;99.90;;;;;;5008203;28;20550;-82
2023/01/02 12:15:18;;;;;;;9.10;8.20;;;11.80;99.90;;;;;;5011932;28;20457;-81
2023/01/02 12:17:53;;;;;;;12.67;10.40;;;12.00;99.90;;;;;;5016679;28;20463;-82
2023/01/02 12:20:40;;;;;;;12.43;11.20;;;12.10;99.90;;;;;;5014832;28;20960;-83
2023/01/02 12:23:32;;;;;;;9.23;8.33;;;11.90;99.90;;;;;;5005531;28;20454;-82
2023/01/02 12:26:10;;;;;;;10.50;9.50;;;12.00;99.90;;;;;;5008328;28;20813;-82
2023/01/02 12:29:02;;;;;;;9.83;8.17;;;12.00;99.90;;;;;;5016816;28;20450;-82
2023/01/02 12:31:48;;;;;;;9.87;8.63;;;12.10;99.90;;;;;;5003389;28;20482;-82
2023/01/02 12:34:30;;;;;;;10.10;9.10;;;12.10;99.90;;;;;;5017864;28;20461;-84
2023/01/02 12:37:09;;;;;;;9.43;8.43;;;11.90;99.90;;;;;;5010273;28;20856;-82
2023/01/02 12:39:54;;;;;;;11.67;9.13;;;11.90;99.90;;;;;;5015511;28;20442;-80
2023/01/02 12:42:37;;;;;;;10.67;8.43;;;11.70;99.90;;;;;;5030499;28;20456;-80
2023/01/02 12:45:17;;;;;;;16.07;10.07;;;11.90;99.90;;;;;;5015929;28;20454;-82
2023/01/02 12:48:00;;;;;;;13.10;8.93;;;11.90;99.90;;;;;;5015571;28;21225;-81
2023/01/02 12:50:40;;;;;;;8.90;8.00;;;11.80;99.90;;;;;;5017794;28;20453;-81
2023/01/02 12:53:18;;;;;;;10.47;9.07;;;12.00;99.90;;;;;;5005723;28;20478;-82
2023/01/02 12:55:58;;;;;;;9.27;7.90;;;12.10;99.90;;;;;;5015655;28;20545;-82
2023/01/02 12:58:41;;;;;;;9.70;8.70;;;12.00;99.90;;;;;;5007547;28;20447;-82
2023/01/02 13:01:17;;;;;;;9.17;8.10;;;12.00;99.90;;;;;;5012062;28;20459;-82
2023/01/02 13:03:53;;;;;;;10.30;8.10;;;12.00;99.90;;;;;;5012343;28;21020;-82
2023/01/02 13:06:26;;;;;;;9.47;8.27;;;11.90;99.90;;;;;;4998553;28;20478;-81